createdAt,value
2022-10-09T00:05:07.320Z,102475.75
2022-10-09T00:10:29.642Z,102472.97
2022-10-09T00:15:51.525Z,102469.56
2022-10-09T00:21:23.735Z,102468.50
2022-10-09T00:26:47.695Z,102461.69
2022-10-09T00:32:09.377Z,102466.38
2022-10-09T00:37:31.022Z,102455.50
2022-10-09T00:42:57.377Z,102462.09
2022-10-09T00:48:19.789Z,102463.16
2022-10-09T00:53:41.764Z,102462.50
2022-10-09T00:59:04.602Z,102461.69
2022-10-09T01:04:26.343Z,102454.41
2022-10-09T01:10:10.822Z,102445.22
2022-10-09T01:15:49.475Z,102451.00
2022-10-09T01:21:21.159Z,102456.78
2022-10-09T01:26:55.694Z,102445.03
2022-10-09T01:32:22.301Z,102434.34
2022-10-09T01:37:46.590Z,102437.13
2022-10-09T01:43:08.283Z,102425.38
2022-10-09T01:48:30.013Z,102419.84
2022-10-09T01:53:54.837Z,102421.53
2022-10-09T01:59:19.417Z,102404.25
2022-10-09T02:04:43.808Z,102410.88
2022-10-09T02:10:06.836Z,102409.16
2022-10-09T02:15:39.266Z,102400.84
2022-10-09T02:21:09.146Z,102410.22
2022-10-09T02:26:30.890Z,102387.44
2022-10-09T02:31:52.727Z,102388.50
2022-10-09T02:37:14.981Z,102380.38
2022-10-09T02:42:36.669Z,102382.28
2022-10-09T02:47:58.341Z,102376.09
2022-10-09T02:53:20.045Z,102373.34
2022-10-09T02:58:41.766Z,102382.72
2022-10-09T03:04:04.432Z,102377.16
2022-10-09T03:09:29.164Z,102378.22
2022-10-09T03:14:53.195Z,102370.13
2022-10-09T03:20:15.399Z,102382.28
2022-10-09T03:25:37.116Z,102374.81
2022-10-09T03:30:58.971Z,102378.66
2022-10-09T03:36:20.673Z,102375.03
2022-10-09T03:41:42.330Z,102374.19
2022-10-09T03:47:04.125Z,102365.22
2022-10-09T03:52:25.876Z,102369.91
2022-10-09T03:57:47.593Z,102370.13
2022-10-09T04:03:09.508Z,102372.91
2022-10-09T04:08:31.175Z,102365.66
2022-10-09T04:13:52.877Z,102364.78
2022-10-09T04:19:14.492Z,102362.22
2022-10-09T04:24:36.132Z,102350.31
2022-10-09T04:29:58.022Z,102351.34
2022-10-09T04:35:19.715Z,102351.56
2022-10-09T04:40:41.512Z,102346.00
2022-10-09T04:46:12.438Z,102343.25
2022-10-09T04:51:34.151Z,102338.13
2022-10-09T04:56:55.858Z,102335.38
2022-10-09T05:02:17.597Z,102322.56
2022-10-09T05:07:39.459Z,102318.94
2022-10-09T05:13:01.294Z,102320.00
2022-10-09T05:18:22.994Z,102323.81
2022-10-09T05:23:45.091Z,102310.19
2022-10-09T05:29:06.816Z,102311.91
2022-10-09T05:34:28.716Z,102311.06
2022-10-09T05:39:50.385Z,102314.03
2022-10-09T05:45:12.178Z,102301.22
2022-10-09T05:50:33.818Z,102302.53
2022-10-09T05:55:55.428Z,102305.94
2022-10-09T06:01:17.813Z,102305.31
2022-10-09T06:06:40.118Z,102302.94
2022-10-09T06:12:01.849Z,102302.53
2022-10-09T06:17:23.561Z,102303.13
2022-10-09T06:22:45.215Z,102305.50
2022-10-09T06:28:06.847Z,102315.28
2022-10-09T06:33:36.809Z,102311.91
2022-10-09T06:39:04.001Z,102319.56
2022-10-09T06:44:25.687Z,102315.72
2022-10-09T06:49:47.415Z,102312.50
2022-10-09T06:55:09.646Z,102314.00
2022-10-09T07:00:31.306Z,102311.00
2022-10-09T07:05:55.097Z,102310.81
2022-10-09T07:11:23.120Z,102304.41
2022-10-09T07:16:47.428Z,102299.41
2022-10-09T07:22:11.587Z,102292.66
2022-10-09T07:27:33.513Z,102306.16
2022-10-09T07:32:55.125Z,102291.91
2022-10-09T07:38:17.282Z,102302.03
2022-10-09T07:43:40.334Z,102301.50
2022-10-09T07:49:03.233Z,102296.00
2022-10-09T07:54:27.696Z,102288.28
2022-10-09T07:59:49.365Z,102288.56
2022-10-09T08:05:11.073Z,102286.91
2022-10-09T08:10:33.084Z,102280.66
2022-10-09T08:15:58.700Z,102279.31
2022-10-09T08:21:20.399Z,102282.06
2022-10-09T08:26:43.112Z,102275.72
2022-10-09T08:32:04.817Z,102263.03
2022-10-09T08:37:26.451Z,102272.25
2022-10-09T08:42:56.184Z,102271.53
2022-10-09T08:48:24.023Z,102264.25
2022-10-09T08:54:15.539Z,102265.25
2022-10-09T08:59:37.244Z,102246.59
2022-10-09T09:05:08.987Z,102243.91
2022-10-09T09:10:47.211Z,102246.91
2022-10-09T09:16:46.165Z,102230.94
2022-10-09T09:22:14.081Z,102224.38
2022-10-09T09:27:37.923Z,102217.19
2022-10-09T09:33:15.848Z,102206.72
2022-10-09T09:38:48.071Z,102206.78
2022-10-09T09:44:20.032Z,102196.56
2022-10-09T09:49:54.933Z,102189.53
2022-10-09T09:55:35.312Z,102187.19
2022-10-09T10:01:01.504Z,102175.28
2022-10-09T10:06:32.210Z,102173.78
2022-10-09T10:11:56.839Z,102163.97
2022-10-09T10:17:28.562Z,102152.25
2022-10-09T10:22:55.585Z,102150.09
2022-10-09T10:28:27.228Z,102145.84
2022-10-09T10:33:55.675Z,102136.91
2022-10-09T10:39:41.305Z,102133.25
2022-10-09T10:45:19.479Z,102126.25
2022-10-09T10:50:56.098Z,102116.22
2022-10-09T10:56:29.749Z,102105.34
2022-10-09T11:02:03.084Z,102101.72
2022-10-09T11:07:48.730Z,102090.00
2022-10-09T11:13:25.709Z,102084.47
2022-10-09T11:18:53.240Z,102069.09
2022-10-09T11:24:39.068Z,102063.53
2022-10-09T11:30:04.393Z,102052.06
2022-10-09T11:35:36.936Z,102044.38
2022-10-09T11:41:01.518Z,102040.72
2022-10-09T11:46:50.169Z,102026.03
2022-10-09T11:52:36.440Z,102019.63
2022-10-09T11:58:19.469Z,102005.97
2022-10-09T12:03:41.335Z,101998.72
2022-10-09T12:09:07.706Z,101994.25
2022-10-09T12:14:30.839Z,101974.84
2022-10-09T12:20:00.765Z,101963.75
2022-10-09T12:25:30.705Z,101949.88
2022-10-09T12:30:53.071Z,101946.28
2022-10-09T12:36:22.943Z,101934.31
2022-10-09T12:41:47.141Z,101916.00
2022-10-09T12:47:17.857Z,101916.00
2022-10-09T12:52:49.832Z,101901.91
2022-10-09T12:58:19.203Z,101889.09
2022-10-09T13:03:56.611Z,101878.03
2022-10-09T13:09:33.252Z,101872.47
2022-10-09T13:15:01.885Z,101859.69
2022-10-09T13:20:28.070Z,101846.88
2022-10-09T13:25:49.784Z,101855.00
2022-10-09T13:31:12.258Z,101832.19
2022-10-09T13:41:57.793Z,101812.16
2022-10-09T13:47:24.086Z,101807.22
2022-10-09T13:52:47.010Z,101802.31
2022-10-09T13:58:08.669Z,101793.38
2022-10-09T14:08:52.924Z,101774.41
2022-10-09T14:14:14.793Z,101760.09
2022-10-09T14:19:36.531Z,101761.78
2022-10-09T14:24:58.313Z,101740.69
2022-10-09T14:30:20.056Z,101740.69
2022-10-09T14:35:41.758Z,101736.84
2022-10-09T14:41:03.574Z,101731.28
2022-10-09T14:46:27.432Z,101725.75
2022-10-09T14:51:49.155Z,101714.03
2022-10-09T14:57:10.832Z,101708.69
2022-10-09T15:02:32.508Z,101703.41
2022-10-09T15:07:54.297Z,101685.69
2022-10-09T15:13:15.995Z,101678.19
2022-10-09T15:24:01.356Z,101665.19
2022-10-09T15:29:23.050Z,101656.03
2022-10-09T15:34:44.705Z,101657.97
2022-10-09T15:40:07.005Z,101646.00
2022-10-09T15:45:28.784Z,101628.53
2022-10-09T15:50:53.772Z,101626.84
2022-10-09T15:56:22.557Z,101623.44
2022-10-09T16:01:44.368Z,101616.00
2022-10-09T16:07:06.042Z,101602.97
2022-10-09T16:12:27.689Z,101599.13
2022-10-09T16:17:50.991Z,101592.75
2022-10-09T16:23:14.334Z,101583.56
2022-10-09T16:28:36.459Z,101581.25
2022-10-09T16:33:59.038Z,101582.09
2022-10-09T16:39:23.692Z,101582.19
2022-10-09T16:44:45.437Z,101578.34
2022-10-09T16:50:07.797Z,101577.97
2022-10-09T16:55:29.511Z,101578.78
2022-10-09T17:00:51.302Z,101572.63
2022-10-09T17:06:23.833Z,101570.72
2022-10-09T17:11:46.196Z,101580.31
2022-10-09T17:17:09.557Z,101573.31
2022-10-09T17:22:31.161Z,101571.88
2022-10-09T17:27:52.802Z,101573.19
2022-10-09T17:33:19.533Z,101575.09
2022-10-09T17:38:41.519Z,101567.84
2022-10-09T17:44:04.023Z,101574.25
2022-10-09T17:49:25.718Z,101570.00
2022-10-09T17:54:47.460Z,101566.94
2022-10-09T18:00:10.646Z,101559.56
2022-10-09T18:05:32.419Z,101558.16
2022-10-09T18:11:09.927Z,101556.13
2022-10-09T18:16:36.924Z,101553.34
2022-10-09T18:21:58.672Z,101547.34
2022-10-09T18:27:20.680Z,101540.72
2022-10-09T18:32:42.459Z,101534.94
2022-10-09T18:38:05.428Z,101531.31
2022-10-09T18:43:27.234Z,101537.94
2022-10-09T18:48:49.703Z,101531.31
2022-10-09T18:54:17.104Z,101531.94
2022-10-09T18:59:40.505Z,101527.13
2022-10-09T19:05:02.199Z,101509.41
2022-10-09T19:10:24.189Z,101511.16
2022-10-09T19:15:53.515Z,101509.97
2022-10-09T19:21:15.446Z,101500.91
2022-10-09T19:26:37.350Z,101500.06
2022-10-09T19:31:59.048Z,101502.84
2022-10-09T19:37:22.061Z,101501.63
2022-10-09T19:42:45.444Z,101495.72
2022-10-09T19:48:07.443Z,101492.34
2022-10-09T19:53:29.082Z,101485.81
2022-10-09T19:58:51.199Z,101491.22
2022-10-09T20:04:13.026Z,101486.75
2022-10-09T20:09:34.768Z,101479.50
2022-10-09T20:14:56.507Z,101482.53
2022-10-09T20:20:18.252Z,101481.31
2022-10-09T20:25:39.939Z,101476.47
2022-10-09T20:31:09.312Z,101476.59
2022-10-09T20:36:35.322Z,101469.84
2022-10-09T20:41:57.363Z,101475.00
2022-10-09T20:47:19.010Z,101472.47
2022-10-09T20:52:40.722Z,101462.09
2022-10-09T20:58:03.338Z,101462.72
2022-10-09T21:03:25.242Z,101458.84
2022-10-09T21:08:47.038Z,101456.19
2022-10-09T21:14:10.128Z,101450.19
2022-10-09T21:19:32.080Z,101451.88
2022-10-09T21:24:53.765Z,101443.69
2022-10-09T21:30:15.534Z,101452.13
2022-10-09T21:35:46.362Z,101439.00
2022-10-09T21:41:08.114Z,101434.03
2022-10-09T21:46:30.673Z,101434.03
2022-10-09T21:51:53.219Z,101430.78
2022-10-09T21:57:14.911Z,101421.84
2022-10-09T22:02:37.104Z,101420.66
2022-10-09T22:07:58.757Z,101420.25
2022-10-09T22:13:21.395Z,101412.66
2022-10-09T22:18:43.669Z,101411.47
2022-10-09T22:24:05.544Z,101408.09
2022-10-09T22:29:27.762Z,101407.72
2022-10-09T22:34:52.185Z,101412.88
2022-10-09T22:40:14.373Z,101403.97
2022-10-09T22:45:38.855Z,101405.28
2022-10-09T22:51:02.192Z,101398.28
2022-10-09T22:56:33.042Z,101400.72
2022-10-09T23:01:56.837Z,101400.31
2022-10-09T23:07:18.524Z,101393.06
2022-10-09T23:12:40.182Z,101389.91
2022-10-09T23:18:02.956Z,101390.16
2022-10-09T23:23:24.810Z,101378.47
2022-10-09T23:28:53.555Z,101380.63
2022-10-09T23:34:15.815Z,101381.13
2022-10-09T23:39:37.486Z,101373.28
2022-10-09T23:44:59.183Z,101365.19
2022-10-09T23:50:20.855Z,101361.81
2022-10-09T23:55:43.520Z,101353.72
